createdAt,value
2022-12-29T00:00:14.395Z,7.97
2022-12-29T00:02:40.966Z,8.20
2022-12-29T00:05:08.150Z,7.07
2022-12-29T00:07:34.696Z,9.63
2022-12-29T00:10:01.191Z,9.73
2022-12-29T00:12:47.655Z,11.07
2022-12-29T00:15:32.836Z,10.13
2022-12-29T00:17:59.368Z,7.77
2022-12-29T00:20:44.552Z,10.27
2022-12-29T00:23:31.380Z,9.90
2022-12-29T00:26:17.696Z,11.20
2022-12-29T00:29:03.080Z,13.33
2022-12-29T00:31:48.528Z,12.70
2022-12-29T00:34:33.779Z,11.57
2022-12-29T00:37:00.261Z,13.57
2022-12-29T00:39:45.549Z,10.17
2022-12-29T00:42:30.827Z,13.40
2022-12-29T00:44:57.394Z,14.87
2022-12-29T00:47:23.880Z,13.20
2022-12-29T00:49:50.384Z,13.17
2022-12-29T00:52:16.886Z,20.43
2022-12-29T00:54:46.003Z,18.93
2022-12-29T00:57:13.437Z,19.53
2022-12-29T00:59:40.329Z,25.60
2022-12-29T01:02:07.022Z,31.07
2022-12-29T01:04:33.982Z,24.27
2022-12-29T01:07:00.572Z,27.37
2022-12-29T01:09:45.949Z,28.27
2022-12-29T01:12:12.514Z,23.77
2022-12-29T01:14:39.027Z,18.60
2022-12-29T01:17:05.641Z,20.53
2022-12-29T01:19:32.153Z,18.70
2022-12-29T01:21:58.664Z,20.80
2022-12-29T01:24:27.128Z,18.13
2022-12-29T01:26:55.586Z,21.80
2022-12-29T01:29:22.352Z,19.97
2022-12-29T01:31:50.821Z,18.17
2022-12-29T01:34:17.733Z,16.73
2022-12-29T01:36:44.855Z,15.17
2022-12-29T01:39:11.456Z,15.87
2022-12-29T01:41:37.995Z,11.73
2022-12-29T01:44:24.466Z,13.83
2022-12-29T01:46:50.974Z,16.27
2022-12-29T01:49:21.895Z,10.23
2022-12-29T01:51:49.640Z,10.17
2022-12-29T01:54:18.026Z,14.70
2022-12-29T01:56:44.868Z,12.30
2022-12-29T01:59:12.564Z,14.27
2022-12-29T02:01:39.286Z,16.83
2022-12-29T02:04:05.956Z,13.87
2022-12-29T02:06:33.804Z,14.07
2022-12-29T02:09:00.956Z,13.13
2022-12-29T02:11:28.162Z,13.10
2022-12-29T02:13:54.706Z,11.87
2022-12-29T02:16:27.802Z,11.63
2022-12-29T02:19:14.596Z,12.73
2022-12-29T02:21:59.462Z,13.30
2022-12-29T02:24:25.963Z,13.07
2022-12-29T02:27:21.562Z,13.37
2022-12-29T02:30:11.425Z,8.67
2022-12-29T02:32:39.010Z,10.63
2022-12-29T02:35:10.931Z,10.37
2022-12-29T02:37:43.415Z,11.13
2022-12-29T02:40:16.083Z,9.40
2022-12-29T02:42:52.631Z,7.07
2022-12-29T02:45:19.143Z,7.30
2022-12-29T02:47:50.112Z,9.27
2022-12-29T02:50:19.005Z,10.40
2022-12-29T02:52:50.380Z,8.43
2022-12-29T02:55:16.941Z,8.70
2022-12-29T02:57:43.591Z,8.50
2022-12-29T03:00:14.104Z,10.87
2022-12-29T03:02:40.780Z,7.63
2022-12-29T03:05:26.305Z,9.77
2022-12-29T03:07:52.788Z,6.93
2022-12-29T03:10:22.631Z,7.33
2022-12-29T03:13:07.908Z,10.07
2022-12-29T03:15:59.620Z,6.53
2022-12-29T03:18:28.633Z,7.27
2022-12-29T03:20:56.761Z,8.40
2022-12-29T03:23:23.349Z,6.97
2022-12-29T03:25:50.693Z,8.23
2022-12-29T03:28:19.656Z,8.40
2022-12-29T03:30:46.316Z,6.57
2022-12-29T03:33:13.844Z,6.03
2022-12-29T03:35:41.770Z,5.97
2022-12-29T03:38:20.548Z,6.27
2022-12-29T03:40:48.355Z,5.37
2022-12-29T03:43:14.931Z,4.83
2022-12-29T03:45:41.462Z,4.40
2022-12-29T03:48:08.058Z,5.57
2022-12-29T03:50:34.917Z,6.73
2022-12-29T03:53:01.543Z,4.13
2022-12-29T03:55:28.025Z,7.63
2022-12-29T03:57:54.602Z,7.47
2022-12-29T04:00:21.192Z,8.13
2022-12-29T04:02:47.915Z,5.37
2022-12-29T04:05:14.851Z,7.90
2022-12-29T04:07:41.361Z,6.40
2022-12-29T04:10:08.071Z,8.53
2022-12-29T04:12:34.590Z,7.93
2022-12-29T04:15:01.132Z,9.33
2022-12-29T04:17:27.640Z,13.63
2022-12-29T04:20:14.421Z,10.43
2022-12-29T04:22:41.011Z,15.57
2022-12-29T04:25:08.084Z,12.47
2022-12-29T04:27:34.634Z,13.77
2022-12-29T04:30:01.125Z,12.23
2022-12-29T04:32:27.784Z,10.33
2022-12-29T04:34:54.308Z,12.30
2022-12-29T04:37:20.833Z,12.03
2022-12-29T04:39:47.357Z,11.77
2022-12-29T04:42:14.011Z,15.13
2022-12-29T04:44:45.019Z,15.40
2022-12-29T04:47:11.826Z,16.37
2022-12-29T04:49:38.364Z,15.73
2022-12-29T04:52:05.247Z,21.13
2022-12-29T04:54:31.858Z,19.37
2022-12-29T04:56:58.431Z,17.80
2022-12-29T04:59:24.943Z,16.70
2022-12-29T05:01:51.544Z,16.47
2022-12-29T05:04:18.177Z,17.13
2022-12-29T05:06:44.669Z,15.53
2022-12-29T05:09:11.226Z,17.53
2022-12-29T05:11:37.758Z,14.47
2022-12-29T05:14:04.272Z,15.33
2022-12-29T05:16:30.793Z,13.67
2022-12-29T05:18:57.397Z,9.53
2022-12-29T05:21:24.023Z,9.13
2022-12-29T05:23:50.619Z,7.83
2022-12-29T05:26:17.146Z,10.27
2022-12-29T05:28:43.783Z,10.63
2022-12-29T05:31:10.421Z,10.07
2022-12-29T05:33:37.019Z,9.10
2022-12-29T05:36:06.980Z,11.70
2022-12-29T05:38:34.285Z,11.97
2022-12-29T05:41:00.879Z,11.43
2022-12-29T05:43:27.449Z,14.47
2022-12-29T05:45:53.989Z,11.63
2022-12-29T05:48:20.565Z,12.33
2022-12-29T05:50:50.602Z,14.20
2022-12-29T05:53:17.260Z,14.53
2022-12-29T05:55:48.592Z,13.97
2022-12-29T05:58:15.809Z,18.77
2022-12-29T06:00:43.680Z,15.23
2022-12-29T06:03:10.296Z,16.40
2022-12-29T06:05:36.913Z,15.97
2022-12-29T06:08:03.548Z,18.80
2022-12-29T06:10:30.090Z,14.50
2022-12-29T06:12:56.602Z,13.53
2022-12-29T06:15:23.314Z,15.20
2022-12-29T06:17:49.819Z,13.47
2022-12-29T06:20:16.383Z,17.17
2022-12-29T06:22:44.149Z,11.77
2022-12-29T06:25:10.844Z,12.63
2022-12-29T06:27:37.386Z,12.13
2022-12-29T06:30:04.302Z,13.30
2022-12-29T06:32:30.952Z,13.07
2022-12-29T06:34:57.481Z,17.07
2022-12-29T06:37:23.966Z,14.30
2022-12-29T06:39:50.893Z,12.37
2022-12-29T06:42:17.587Z,12.70
2022-12-29T06:44:44.964Z,10.37
2022-12-29T06:47:11.550Z,8.80
2022-12-29T06:49:38.063Z,9.03
2022-12-29T06:52:10.734Z,9.63
2022-12-29T06:54:39.396Z,10.97
2022-12-29T06:57:05.987Z,11.60
2022-12-29T06:59:32.535Z,12.10
2022-12-29T07:01:59.280Z,8.80
2022-12-29T07:04:26.540Z,12.80
2022-12-29T07:06:53.054Z,10.77
2022-12-29T07:09:20.059Z,12.23
2022-12-29T07:11:46.689Z,11.97
2022-12-29T07:14:13.301Z,11.40
2022-12-29T07:16:40.114Z,10.67
2022-12-29T07:19:06.895Z,8.97
2022-12-29T07:21:33.730Z,9.37
2022-12-29T07:24:00.499Z,14.37
2022-12-29T07:26:31.543Z,10.77
2022-12-29T07:29:01.909Z,9.97
2022-12-29T07:31:28.456Z,10.17
2022-12-29T07:33:55.294Z,12.53
2022-12-29T07:36:21.816Z,8.73
2022-12-29T07:38:48.397Z,10.00
2022-12-29T07:41:14.910Z,11.60
2022-12-29T07:43:41.428Z,9.97
2022-12-29T07:46:14.577Z,12.67
2022-12-29T07:49:00.013Z,11.47
2022-12-29T07:51:26.597Z,13.57
2022-12-29T07:53:53.136Z,14.90
2022-12-29T07:56:19.668Z,14.77
2022-12-29T07:58:46.268Z,12.17
2022-12-29T08:01:12.838Z,13.00
2022-12-29T08:03:42.648Z,19.10
2022-12-29T08:06:12.481Z,14.40
2022-12-29T08:08:39.360Z,11.97
2022-12-29T08:11:05.900Z,11.97
2022-12-29T08:13:32.504Z,15.67
2022-12-29T08:16:00.304Z,10.47
2022-12-29T08:18:27.007Z,9.90
2022-12-29T08:20:59.660Z,15.57
2022-12-29T08:23:26.165Z,14.60
2022-12-29T08:26:02.325Z,13.13
2022-12-29T08:28:31.812Z,16.47
2022-12-29T08:30:58.824Z,12.47
2022-12-29T08:33:25.578Z,15.57
2022-12-29T08:35:52.221Z,12.50
2022-12-29T08:38:20.182Z,15.37
2022-12-29T08:40:46.744Z,16.47
2022-12-29T08:43:15.554Z,14.50
2022-12-29T08:45:45.010Z,12.37
2022-12-29T08:48:11.623Z,12.57
2022-12-29T08:50:38.439Z,17.97
2022-12-29T08:53:05.029Z,15.57
2022-12-29T08:55:31.551Z,13.80
2022-12-29T08:57:58.052Z,16.80
2022-12-29T09:00:24.623Z,16.23
2022-12-29T09:02:51.524Z,15.47
2022-12-29T09:05:18.287Z,16.57
2022-12-29T09:07:45.057Z,13.07
2022-12-29T09:10:11.628Z,14.50
2022-12-29T09:12:38.164Z,18.73
2022-12-29T09:15:05.058Z,18.77
2022-12-29T09:17:47.097Z,15.53
2022-12-29T09:20:17.468Z,18.00
2022-12-29T09:22:44.179Z,13.73
2022-12-29T09:25:13.291Z,13.03
2022-12-29T09:27:40.289Z,14.93
2022-12-29T09:30:07.725Z,18.27
2022-12-29T09:32:36.832Z,18.90
2022-12-29T09:35:05.972Z,13.47
2022-12-29T09:37:32.484Z,19.03
2022-12-29T09:39:59.004Z,11.90
2022-12-29T09:42:25.519Z,14.17
2022-12-29T09:45:10.604Z,16.00
2022-12-29T09:47:37.175Z,14.83
2022-12-29T09:50:10.715Z,14.43
2022-12-29T09:52:37.998Z,15.43
2022-12-29T09:55:12.019Z,13.10
2022-12-29T09:57:57.422Z,16.60
2022-12-29T10:00:25.219Z,10.77
2022-12-29T10:02:59.938Z,10.93
2022-12-29T10:05:35.687Z,9.53
2022-12-29T10:08:12.574Z,15.13
2022-12-29T10:10:44.901Z,14.13
2022-12-29T10:13:18.235Z,14.60
2022-12-29T10:15:56.445Z,11.77
2022-12-29T10:18:26.156Z,16.57
2022-12-29T10:21:11.454Z,19.30
2022-12-29T10:23:45.939Z,12.03
2022-12-29T10:26:14.903Z,16.17
2022-12-29T10:28:43.949Z,17.83
2022-12-29T10:31:12.848Z,15.60
2022-12-29T10:33:40.731Z,13.43
2022-12-29T10:36:15.008Z,13.70
2022-12-29T10:38:42.474Z,13.37
2022-12-29T10:41:16.439Z,12.53
2022-12-29T10:43:46.917Z,13.37
2022-12-29T10:46:14.442Z,14.63
2022-12-29T10:48:41.046Z,11.23
2022-12-29T10:51:07.699Z,15.57
2022-12-29T10:53:44.938Z,15.03
2022-12-29T10:56:15.884Z,12.37
2022-12-29T10:58:46.726Z,13.63
2022-12-29T11:01:15.854Z,12.53
2022-12-29T11:03:55.460Z,14.07
2022-12-29T11:06:25.153Z,11.43
2022-12-29T11:08:58.931Z,8.27
2022-12-29T11:11:30.201Z,8.43
2022-12-29T11:14:01.359Z,11.50
2022-12-29T11:16:28.576Z,12.43
2022-12-29T11:18:55.145Z,14.43
2022-12-29T11:21:24.781Z,12.30
2022-12-29T11:24:01.470Z,12.70
2022-12-29T11:26:33.779Z,11.10
2022-12-29T11:29:14.071Z,14.50
2022-12-29T11:31:44.753Z,14.30
2022-12-29T11:34:17.597Z,15.23
2022-12-29T11:36:44.078Z,15.17
2022-12-29T11:39:18.679Z,15.57
2022-12-29T11:41:46.773Z,21.03
2022-12-29T11:44:13.298Z,15.00
2022-12-29T11:46:39.932Z,17.73
2022-12-29T11:49:06.437Z,17.87
2022-12-29T11:51:42.972Z,21.73
2022-12-29T11:54:11.240Z,16.93
2022-12-29T11:56:40.934Z,20.00
2022-12-29T11:59:27.053Z,22.03
2022-12-29T12:01:53.924Z,15.73
2022-12-29T12:04:21.876Z,16.47
2022-12-29T12:07:08.702Z,16.80
2022-12-29T12:09:40.128Z,17.30
2022-12-29T12:12:06.685Z,19.23
2022-12-29T12:14:39.840Z,16.07
2022-12-29T12:17:16.516Z,14.33
2022-12-29T12:19:44.745Z,16.50
2022-12-29T12:22:14.936Z,13.03
2022-12-29T12:24:55.914Z,12.27
2022-12-29T12:27:35.114Z,16.00
2022-12-29T12:30:01.602Z,16.47
2022-12-29T12:32:38.977Z,14.50
2022-12-29T12:35:05.592Z,14.70
2022-12-29T12:38:04.653Z,18.27
2022-12-29T12:40:54.585Z,12.87
2022-12-29T12:43:37.074Z,14.30
2022-12-29T12:46:03.605Z,16.17
2022-12-29T12:48:33.115Z,19.07
2022-12-29T12:50:59.618Z,17.30
2022-12-29T12:53:29.199Z,13.73
2022-12-29T12:56:02.001Z,15.63
2022-12-29T12:58:47.379Z,17.57
2022-12-29T13:01:23.254Z,18.20
2022-12-29T13:03:56.238Z,16.87
2022-12-29T13:06:35.108Z,21.00
2022-12-29T13:09:04.720Z,17.60
2022-12-29T13:11:54.721Z,17.17
2022-12-29T13:14:31.388Z,18.27
2022-12-29T13:17:01.808Z,15.97
2022-12-29T13:19:49.160Z,17.00
2022-12-29T13:22:21.553Z,19.50
2022-12-29T13:24:48.104Z,17.27
2022-12-29T13:27:14.594Z,20.30
2022-12-29T13:29:47.341Z,18.80
2022-12-29T13:32:13.827Z,18.60
2022-12-29T13:34:40.399Z,18.80
2022-12-29T13:37:10.366Z,22.53
2022-12-29T13:39:38.744Z,20.77
2022-12-29T13:42:06.102Z,19.13
2022-12-29T13:44:36.626Z,22.13
2022-12-29T13:47:16.575Z,17.70
2022-12-29T13:49:43.218Z,21.93
2022-12-29T13:52:30.808Z,19.67
2022-12-29T13:55:06.578Z,21.13
2022-12-29T13:57:36.726Z,18.17
2022-12-29T14:00:13.429Z,19.00
2022-12-29T14:02:46.375Z,19.20
2022-12-29T14:05:19.249Z,15.93
2022-12-29T14:07:45.793Z,11.23
2022-12-29T14:10:31.043Z,15.90
2022-12-29T14:13:05.221Z,17.87
2022-12-29T14:15:31.799Z,21.43
2022-12-29T14:18:13.642Z,14.03
2022-12-29T14:20:40.995Z,21.70
2022-12-29T14:23:10.786Z,16.23
2022-12-29T14:25:56.109Z,17.70
2022-12-29T14:28:32.798Z,19.03
2022-12-29T14:31:14.981Z,17.13
2022-12-29T14:33:42.087Z,17.13
2022-12-29T14:36:35.091Z,19.87
2022-12-29T14:39:01.863Z,16.83
2022-12-29T14:41:30.380Z,20.53
2022-12-29T14:44:01.261Z,16.37
2022-12-29T14:46:44.465Z,15.83
2022-12-29T14:49:15.595Z,15.20
2022-12-29T14:51:42.194Z,15.83
2022-12-29T14:54:28.860Z,17.93
2022-12-29T14:56:58.029Z,20.53
2022-12-29T14:59:24.946Z,17.63
2022-12-29T15:01:53.344Z,16.40
2022-12-29T15:04:20.037Z,18.63
2022-12-29T15:06:47.162Z,14.13
2022-12-29T15:09:15.688Z,15.20
2022-12-29T15:11:43.558Z,14.90
2022-12-29T15:14:29.685Z,13.87
2022-12-29T15:16:56.264Z,15.97
2022-12-29T15:19:23.272Z,14.43
2022-12-29T15:21:49.810Z,15.40
2022-12-29T15:24:16.452Z,18.87
2022-12-29T15:26:53.316Z,15.33
2022-12-29T15:29:40.028Z,17.27
2022-12-29T15:32:22.924Z,19.93
2022-12-29T15:34:50.525Z,16.23
2022-12-29T15:37:21.038Z,14.97
2022-12-29T15:39:47.678Z,13.67
2022-12-29T15:42:37.432Z,13.93
2022-12-29T15:45:13.253Z,18.27
2022-12-29T15:47:39.825Z,13.43
2022-12-29T15:50:25.124Z,12.47
2022-12-29T15:52:51.622Z,15.47
2022-12-29T15:55:22.377Z,17.27
2022-12-29T15:57:49.136Z,16.40
2022-12-29T16:00:24.078Z,13.83
2022-12-29T16:02:50.741Z,18.20
2022-12-29T16:05:18.674Z,16.97
2022-12-29T16:07:58.535Z,20.83
2022-12-29T16:10:31.523Z,19.50
2022-12-29T16:13:19.246Z,24.43
2022-12-29T16:15:49.542Z,21.70
2022-12-29T16:18:26.339Z,16.80
2022-12-29T16:20:53.036Z,19.77
2022-12-29T16:23:20.805Z,19.23
2022-12-29T16:25:47.423Z,18.37
2022-12-29T16:28:19.963Z,18.53
2022-12-29T16:30:46.659Z,19.57
2022-12-29T16:33:32.093Z,20.13
2022-12-29T16:35:58.650Z,19.17
2022-12-29T16:38:31.321Z,17.57
2022-12-29T16:40:58.370Z,20.13
2022-12-29T16:43:25.914Z,21.50
2022-12-29T16:45:52.554Z,22.03
2022-12-29T16:48:19.296Z,19.33
2022-12-29T16:50:45.958Z,23.27
2022-12-29T16:53:19.359Z,18.40
2022-12-29T16:55:50.575Z,17.43
2022-12-29T16:58:18.725Z,18.10
2022-12-29T17:00:45.585Z,17.40
2022-12-29T17:03:12.213Z,19.00
2022-12-29T17:05:38.888Z,18.77
2022-12-29T17:08:14.695Z,20.90
2022-12-29T17:11:00.069Z,22.33
2022-12-29T17:13:26.629Z,18.27
2022-12-29T17:15:53.286Z,19.70
2022-12-29T17:18:20.011Z,20.23
2022-12-29T17:20:46.643Z,21.13
2022-12-29T17:23:19.884Z,23.73
2022-12-29T17:25:52.605Z,24.17
2022-12-29T17:28:25.488Z,25.80
2022-12-29T17:30:53.184Z,29.80
2022-12-29T17:33:20.324Z,24.27
2022-12-29T17:35:51.714Z,26.60
2022-12-29T17:38:24.252Z,30.13
2022-12-29T17:40:50.857Z,26.90
2022-12-29T17:43:17.585Z,28.27
2022-12-29T17:45:44.363Z,29.90
2022-12-29T17:48:14.476Z,30.43
2022-12-29T17:50:41.098Z,30.57
2022-12-29T17:53:14.410Z,29.50
2022-12-29T17:55:41.061Z,32.30
2022-12-29T17:58:26.736Z,29.97
2022-12-29T18:00:54.256Z,33.93
2022-12-29T18:03:39.811Z,37.97
2022-12-29T18:06:08.439Z,37.83
2022-12-29T18:08:35.673Z,41.33
2022-12-29T18:11:02.519Z,33.03
2022-12-29T18:13:39.366Z,34.47
2022-12-29T18:16:11.131Z,36.47
2022-12-29T18:18:38.353Z,34.30
2022-12-29T18:21:05.034Z,33.70
2022-12-29T18:23:32.797Z,32.23
2022-12-29T18:26:00.891Z,34.13
2022-12-29T18:28:27.733Z,33.80
2022-12-29T18:30:54.481Z,31.60
2022-12-29T18:33:24.100Z,32.03
2022-12-29T18:35:54.712Z,31.60
2022-12-29T18:38:21.464Z,30.17
2022-12-29T18:40:48.355Z,29.97
2022-12-29T18:43:15.941Z,27.20
2022-12-29T18:45:42.644Z,27.67
2022-12-29T18:48:09.337Z,26.37
2022-12-29T18:50:35.864Z,29.73
2022-12-29T18:53:04.109Z,26.77
2022-12-29T18:55:31.135Z,31.10
2022-12-29T18:57:57.717Z,26.90
2022-12-29T19:00:24.382Z,33.17
2022-12-29T19:02:51.311Z,31.43
2022-12-29T19:05:22.199Z,37.57
2022-12-29T19:07:48.798Z,32.33
2022-12-29T19:10:15.485Z,34.87
2022-12-29T19:12:42.062Z,33.97
2022-12-29T19:15:13.969Z,29.50
2022-12-29T19:17:40.512Z,29.50
2022-12-29T19:20:07.338Z,31.23
2022-12-29T19:22:33.856Z,31.27
2022-12-29T19:25:00.572Z,29.80
2022-12-29T19:27:27.199Z,32.03
2022-12-29T19:29:53.892Z,30.70
2022-12-29T19:32:20.500Z,28.17
2022-12-29T19:34:48.956Z,27.43
2022-12-29T19:37:15.510Z,23.63
2022-12-29T19:39:42.085Z,32.10
2022-12-29T19:42:08.616Z,28.70
2022-12-29T19:44:35.158Z,27.77
2022-12-29T19:47:01.813Z,29.87
2022-12-29T19:49:28.391Z,33.50
2022-12-29T19:51:54.971Z,31.40
2022-12-29T19:54:21.576Z,34.17
2022-12-29T19:56:48.250Z,31.47
2022-12-29T19:59:14.814Z,28.90
2022-12-29T20:01:41.493Z,30.93
2022-12-29T20:04:08.254Z,28.10
2022-12-29T20:06:34.827Z,27.40
2022-12-29T20:09:01.899Z,24.37
2022-12-29T20:11:28.955Z,24.10
2022-12-29T20:13:56.125Z,23.43
2022-12-29T20:16:22.886Z,21.00
2022-12-29T20:18:50.441Z,20.87
2022-12-29T20:21:20.914Z,21.23
2022-12-29T20:23:47.665Z,20.13
2022-12-29T20:26:15.570Z,22.23
2022-12-29T20:28:42.823Z,24.10
2022-12-29T20:31:14.531Z,18.13
2022-12-29T20:33:41.292Z,18.93
2022-12-29T20:36:12.637Z,23.57
2022-12-29T20:38:39.848Z,23.27
2022-12-29T20:41:07.077Z,27.03
2022-12-29T20:43:33.738Z,22.83
2022-12-29T20:46:00.478Z,23.27
2022-12-29T20:48:27.480Z,22.87
2022-12-29T20:50:54.620Z,27.33
2022-12-29T20:53:21.153Z,27.33
2022-12-29T20:55:47.696Z,25.63
2022-12-29T20:58:23.448Z,29.03
2022-12-29T21:00:50.368Z,26.20
2022-12-29T21:03:17.178Z,29.23
2022-12-29T21:05:44.265Z,23.23
2022-12-29T21:08:11.783Z,23.13
2022-12-29T21:10:38.717Z,22.47
2022-12-29T21:13:05.450Z,19.37
2022-12-29T21:15:32.081Z,18.03
2022-12-29T21:17:58.767Z,17.83
2022-12-29T21:20:32.219Z,17.33
2022-12-29T21:23:02.044Z,16.50
2022-12-29T21:25:38.046Z,19.70
2022-12-29T21:28:08.778Z,18.07
2022-12-29T21:30:35.500Z,18.83
2022-12-29T21:33:02.173Z,17.70
2022-12-29T21:35:28.793Z,17.07
2022-12-29T21:37:55.291Z,21.00
2022-12-29T21:40:24.946Z,20.53
2022-12-29T21:42:51.769Z,19.47
2022-12-29T21:45:27.784Z,21.23
2022-12-29T21:48:13.553Z,20.13
2022-12-29T21:51:01.557Z,21.17
2022-12-29T21:53:38.577Z,18.63
2022-12-29T21:56:10.217Z,20.47
2022-12-29T21:58:55.488Z,19.77
2022-12-29T22:01:40.870Z,23.20
2022-12-29T22:04:26.170Z,22.33
2022-12-29T22:07:11.525Z,21.30
2022-12-29T22:09:56.788Z,23.97
2022-12-29T22:12:42.228Z,23.33
2022-12-29T22:15:08.925Z,22.03
2022-12-29T22:17:37.827Z,22.47
2022-12-29T22:20:05.413Z,25.47
2022-12-29T22:22:32.284Z,23.30
2022-12-29T22:24:58.862Z,24.80
2022-12-29T22:27:26.124Z,24.17
2022-12-29T22:29:54.871Z,27.43
2022-12-29T22:32:21.640Z,26.13
2022-12-29T22:34:48.638Z,24.97
2022-12-29T22:37:15.705Z,23.80
2022-12-29T22:39:42.565Z,25.77
2022-12-29T22:42:09.084Z,20.17
2022-12-29T22:44:35.576Z,22.13
2022-12-29T22:47:04.828Z,21.73
2022-12-29T22:49:31.361Z,21.20
2022-12-29T22:51:57.862Z,21.33
2022-12-29T22:54:24.501Z,24.27
2022-12-29T22:56:51.068Z,20.43
2022-12-29T22:59:17.716Z,22.00
2022-12-29T23:01:44.598Z,20.87
2022-12-29T23:04:55.720Z,21.37
2022-12-29T23:06:57.897Z,21.87
2022-12-29T23:09:24.444Z,20.73
2022-12-29T23:11:52.277Z,22.10
2022-12-29T23:14:18.979Z,21.73
2022-12-29T23:16:45.928Z,22.73
2022-12-29T23:19:12.698Z,20.63
2022-12-29T23:21:39.406Z,21.30
2022-12-29T23:24:06.060Z,18.10
2022-12-29T23:26:36.724Z,21.27
2022-12-29T23:29:04.132Z,18.67
2022-12-29T23:31:30.903Z,17.17
2022-12-29T23:33:58.135Z,19.40
2022-12-29T23:36:24.812Z,18.03
2022-12-29T23:38:51.450Z,17.80
2022-12-29T23:41:18.179Z,19.57
2022-12-29T23:43:44.702Z,18.30
2022-12-29T23:46:12.457Z,17.63
2022-12-29T23:48:39.017Z,21.37
2022-12-29T23:51:05.622Z,19.07
2022-12-29T23:53:32.444Z,19.17
2022-12-29T23:55:58.944Z,21.47
2022-12-29T23:58:25.485Z,22.60
